createdAt,value
2023-04-26T00:01:00.066Z,1.20
2023-04-26T00:06:04.236Z,1.18
2023-04-26T00:11:08.417Z,1.24
2023-04-26T00:16:12.641Z,1.31
2023-04-26T00:21:16.772Z,1.20
2023-04-26T00:26:21.008Z,1.13
2023-04-26T00:31:25.150Z,1.07
2023-04-26T00:41:33.418Z,0.92
2023-04-26T00:46:37.579Z,0.87
2023-04-26T00:51:41.763Z,0.81
2023-04-26T00:56:44.021Z,0.72
2023-04-26T01:01:48.181Z,0.71
2023-04-26T01:06:52.365Z,0.65
2023-04-26T01:11:56.510Z,0.64
2023-04-26T01:17:00.741Z,0.66
2023-04-26T01:22:04.905Z,0.56
2023-04-26T01:27:09.053Z,0.42
2023-04-26T01:32:13.181Z,0.33
2023-04-26T01:37:17.327Z,0.29
2023-04-26T01:42:21.512Z,0.30
2023-04-26T01:47:25.696Z,0.27
2023-04-26T01:52:29.845Z,0.21
2023-04-26T01:57:34.027Z,0.14
2023-04-26T02:02:38.287Z,0.07
2023-04-26T02:07:42.340Z,0.04
2023-04-26T02:12:46.467Z,0.02
2023-04-26T02:17:50.671Z,-0.05
2023-04-26T02:22:54.830Z,-0.12
2023-04-26T02:27:58.981Z,-0.15
2023-04-26T02:33:03.209Z,-0.21
2023-04-26T02:38:07.422Z,-0.25
2023-04-26T02:43:09.642Z,-0.29
2023-04-26T02:48:13.786Z,-0.26
2023-04-26T02:53:17.907Z,-0.36
2023-04-26T02:58:20.217Z,-0.45
2023-04-26T03:03:24.558Z,-0.47
2023-04-26T03:08:28.556Z,-0.52
2023-04-26T03:13:32.679Z,-0.52
2023-04-26T03:18:36.877Z,-0.55
2023-04-26T03:23:41.043Z,-0.51
2023-04-26T03:28:45.236Z,-0.48
2023-04-26T03:33:49.366Z,-0.54
2023-04-26T03:38:53.785Z,-0.61
2023-04-26T03:43:57.707Z,-0.60
2023-04-26T03:49:01.894Z,-0.57
2023-04-26T03:54:06.083Z,-0.60
2023-04-26T03:59:10.213Z,-0.65
2023-04-26T04:04:14.622Z,-0.74
2023-04-26T04:09:18.547Z,-0.73
2023-04-26T04:14:22.735Z,-0.78
2023-04-26T04:19:26.894Z,-0.82
2023-04-26T04:24:32.302Z,-0.80
2023-04-26T04:29:35.336Z,-0.77
2023-04-26T04:34:39.387Z,-0.80
2023-04-26T04:39:43.548Z,-0.75
2023-04-26T04:44:45.841Z,-0.65
2023-04-26T04:49:49.969Z,-0.60
2023-04-26T04:54:54.116Z,-0.55
2023-04-26T04:59:56.401Z,-0.52
2023-04-26T05:05:00.636Z,-0.41
2023-04-26T05:10:04.749Z,-0.39
2023-04-26T05:15:08.903Z,-0.22
2023-04-26T05:20:13.080Z,-0.21
2023-04-26T05:25:17.526Z,-0.11
2023-04-26T05:30:21.412Z,0.09
2023-04-26T05:35:25.548Z,0.19
2023-04-26T05:40:29.745Z,0.35
2023-04-26T05:45:33.912Z,0.47
2023-04-26T05:50:39.998Z,0.60
2023-04-26T05:55:42.248Z,0.87
2023-04-26T06:00:46.436Z,1.18
2023-04-26T06:05:50.672Z,1.46
2023-04-26T06:10:54.721Z,1.75
2023-04-26T06:15:58.969Z,2.06
2023-04-26T06:21:03.087Z,2.31
2023-04-26T06:26:07.240Z,2.60
2023-04-26T06:31:11.425Z,2.89
2023-04-26T06:36:15.684Z,3.11
2023-04-26T06:41:19.705Z,3.44
2023-04-26T06:46:22.053Z,3.80
2023-04-26T06:51:26.184Z,4.13
2023-04-26T06:56:28.462Z,4.45
2023-04-26T07:01:32.611Z,4.74
2023-04-26T07:06:36.803Z,5.11
2023-04-26T07:11:40.935Z,5.35
2023-04-26T07:16:46.382Z,5.67
2023-04-26T07:21:49.277Z,5.88
2023-04-26T07:26:53.434Z,6.01
2023-04-26T07:31:57.579Z,6.47
2023-04-26T07:37:01.765Z,6.65
2023-04-26T07:42:05.938Z,6.89
2023-04-26T07:47:10.070Z,7.21
2023-04-26T07:52:14.250Z,7.16
2023-04-26T07:57:18.371Z,7.16
2023-04-26T08:02:32.941Z,7.36
2023-04-26T08:07:26.764Z,7.58
2023-04-26T08:12:30.854Z,7.71
2023-04-26T08:17:35.141Z,7.51
2023-04-26T08:22:39.200Z,7.42
2023-04-26T08:27:43.374Z,7.47
2023-04-26T08:32:47.548Z,7.43
2023-04-26T08:42:55.824Z,7.53
2023-04-26T08:47:58.190Z,7.57
2023-04-26T08:53:02.279Z,7.63
2023-04-26T08:58:06.530Z,8.29
2023-04-26T09:08:12.908Z,8.80
2023-04-26T09:13:15.144Z,8.80
2023-04-26T09:18:19.343Z,8.70
2023-04-26T09:23:23.468Z,8.69
2023-04-26T09:28:27.658Z,8.66
2023-04-26T09:33:32.170Z,8.83
2023-04-26T09:38:35.943Z,8.91
2023-04-26T09:43:40.126Z,9.06
2023-04-26T09:48:45.190Z,8.98
2023-04-26T09:53:48.448Z,8.50
2023-04-26T09:58:52.859Z,8.06
2023-04-26T10:03:56.955Z,7.86
2023-04-26T10:09:00.912Z,7.91
2023-04-26T10:14:05.113Z,8.13
2023-04-26T10:19:09.257Z,8.54
2023-04-26T10:24:11.528Z,8.96
2023-04-26T10:29:15.696Z,9.07
2023-04-26T10:34:19.838Z,8.93
2023-04-26T10:39:24.054Z,9.36
2023-04-26T10:44:28.168Z,9.93
2023-04-26T10:49:32.343Z,10.07
2023-04-26T10:54:36.480Z,10.02
2023-04-26T10:59:51.182Z,9.55
2023-04-26T11:04:42.974Z,9.30
2023-04-26T11:09:45.187Z,9.12
2023-04-26T11:14:49.377Z,9.04
2023-04-26T11:19:53.517Z,9.15
2023-04-26T11:24:57.668Z,9.23
2023-04-26T11:30:01.868Z,9.67
2023-04-26T11:35:06.008Z,10.21
2023-04-26T11:40:10.185Z,9.75
2023-04-26T11:45:14.401Z,9.66
2023-04-26T11:50:18.538Z,9.66
2023-04-26T12:00:26.804Z,10.61
2023-04-26T12:05:31.019Z,10.42
2023-04-26T12:10:35.109Z,10.13
2023-04-26T12:15:39.316Z,10.01
2023-04-26T12:20:43.498Z,9.84
2023-04-26T12:25:47.619Z,9.75
2023-04-26T12:30:51.815Z,9.89
2023-04-26T12:35:55.937Z,9.65
2023-04-26T12:41:00.153Z,9.67
2023-04-26T12:46:04.333Z,9.64
2023-04-26T12:51:08.506Z,9.66
2023-04-26T12:56:12.576Z,9.56
2023-04-26T13:01:14.916Z,9.93
2023-04-26T13:06:19.075Z,10.12
2023-04-26T13:11:21.325Z,10.09
2023-04-26T13:16:25.491Z,10.24
2023-04-26T13:21:29.616Z,10.34
2023-04-26T13:26:33.781Z,10.29
2023-04-26T13:31:38.024Z,10.48
2023-04-26T13:36:42.107Z,10.56
2023-04-26T13:41:46.259Z,10.65
2023-04-26T13:46:50.405Z,10.74
2023-04-26T13:51:54.616Z,10.72
2023-04-26T13:56:58.733Z,10.92
2023-04-26T14:02:02.942Z,10.92
2023-04-26T14:07:07.070Z,11.47
2023-04-26T14:12:11.230Z,11.85
2023-04-26T14:17:15.433Z,12.05
2023-04-26T14:22:19.574Z,12.30
2023-04-26T14:32:27.924Z,11.37
2023-04-26T14:37:32.030Z,11.43
2023-04-26T14:42:36.228Z,11.47
2023-04-26T14:47:40.412Z,11.71
2023-04-26T14:52:44.551Z,11.47
2023-04-26T14:57:48.677Z,11.22
2023-04-26T15:02:51.155Z,11.15
2023-04-26T15:07:55.133Z,11.14
2023-04-26T15:12:59.272Z,11.35
2023-04-26T15:18:01.618Z,11.60
2023-04-26T15:23:05.719Z,12.35
2023-04-26T15:28:09.854Z,12.80
2023-04-26T15:33:14.012Z,12.71
2023-04-26T15:38:18.198Z,12.28
2023-04-26T15:43:22.332Z,12.58
2023-04-26T15:48:26.508Z,12.33
2023-04-26T15:53:30.677Z,11.85
2023-04-26T15:58:38.114Z,11.40
2023-04-26T16:03:39.150Z,11.13
2023-04-26T16:08:43.153Z,10.86
2023-04-26T16:13:47.275Z,10.50
2023-04-26T16:18:51.442Z,10.20
2023-04-26T16:23:55.598Z,10.09
2023-04-26T16:28:59.759Z,9.93
2023-04-26T16:34:03.927Z,9.81
2023-04-26T16:39:08.128Z,9.82
2023-04-26T16:44:12.282Z,9.67
2023-04-26T16:49:16.419Z,9.65
2023-04-26T16:54:20.587Z,9.69
2023-04-26T16:59:24.734Z,9.50
2023-04-26T17:04:27.181Z,9.49
2023-04-26T17:09:31.156Z,9.53
2023-04-26T17:14:33.428Z,9.40
2023-04-26T17:19:35.713Z,9.35
2023-04-26T17:24:39.882Z,9.15
2023-04-26T17:29:44.044Z,9.15
2023-04-26T17:34:48.182Z,9.14
2023-04-26T17:39:52.378Z,9.03
2023-04-26T17:44:56.571Z,8.90
2023-04-26T17:50:00.721Z,8.86
2023-04-26T17:55:04.867Z,8.80
2023-04-26T18:00:09.022Z,8.65
2023-04-26T18:05:13.168Z,8.53
2023-04-26T18:10:17.346Z,8.46
2023-04-26T18:15:21.477Z,8.40
2023-04-26T18:20:25.674Z,8.28
2023-04-26T18:25:29.827Z,8.17
2023-04-26T18:30:33.975Z,8.06
2023-04-26T18:35:38.175Z,7.84
2023-04-26T18:40:42.312Z,7.67
2023-04-26T18:45:46.474Z,7.48
2023-04-26T18:50:50.623Z,7.29
2023-04-26T18:55:54.798Z,7.14
2023-04-26T19:00:58.950Z,6.90
2023-04-26T19:06:01.228Z,6.70
2023-04-26T19:11:05.404Z,6.57
2023-04-26T19:16:07.772Z,6.52
2023-04-26T19:21:11.824Z,6.49
2023-04-26T19:31:20.261Z,6.43
2023-04-26T19:36:24.333Z,6.47
2023-04-26T19:41:28.463Z,6.44
2023-04-26T19:46:32.674Z,6.50
2023-04-26T19:51:36.799Z,6.55
2023-04-26T19:56:40.944Z,6.58
2023-04-26T20:01:45.208Z,6.50
2023-04-26T20:06:49.277Z,6.45
2023-04-26T20:11:53.440Z,6.43
2023-04-26T20:16:57.765Z,6.39
2023-04-26T20:22:01.761Z,6.35
2023-04-26T20:27:05.939Z,6.33
2023-04-26T20:32:10.126Z,6.30
2023-04-26T20:37:14.281Z,6.28
2023-04-26T20:42:18.386Z,6.19
2023-04-26T20:47:22.638Z,6.11
2023-04-26T20:52:26.758Z,6.06
2023-04-26T20:57:30.917Z,6.04
2023-04-26T21:02:35.301Z,6.03
2023-04-26T21:07:37.356Z,5.95
2023-04-26T21:12:41.539Z,5.89
2023-04-26T21:17:43.820Z,5.85
2023-04-26T21:22:47.943Z,5.83
2023-04-26T21:27:52.128Z,5.76
2023-04-26T21:32:56.384Z,5.69
2023-04-26T21:38:00.476Z,5.69
2023-04-26T21:43:05.496Z,5.68
2023-04-26T21:48:08.829Z,5.62
2023-04-26T21:53:12.952Z,5.55
2023-04-26T21:58:17.091Z,5.47
2023-04-26T22:03:21.363Z,5.39
2023-04-26T22:08:25.426Z,5.34
2023-04-26T22:13:29.557Z,5.37
2023-04-26T22:18:33.746Z,5.38
2023-04-26T22:23:37.902Z,5.33
2023-04-26T22:28:42.167Z,5.28
2023-04-26T22:33:46.254Z,5.22
2023-04-26T22:38:50.401Z,5.09
2023-04-26T22:43:54.571Z,4.97
2023-04-26T22:48:58.748Z,4.86
2023-04-26T22:54:02.881Z,4.75
2023-04-26T22:59:07.098Z,4.67
2023-04-26T23:04:09.371Z,4.55
2023-04-26T23:09:13.783Z,4.46
2023-04-26T23:14:17.647Z,4.33
2023-04-26T23:19:21.830Z,4.16
2023-04-26T23:24:25.986Z,3.97
2023-04-26T23:29:30.175Z,3.77
2023-04-26T23:34:34.314Z,3.60
2023-04-26T23:39:38.468Z,3.44
2023-04-26T23:44:42.649Z,3.34
2023-04-26T23:49:46.776Z,3.22
2023-04-26T23:54:50.987Z,3.09
2023-04-26T23:59:55.142Z,2.97
